Flight Track Log - Related Links

Times and Time Zones

All times are in EDT time to prevent confusion due to time zone crossing. See the UAL4983 flight status page for this flight to view local times or setup timezone preferences in your user account.

Time Position Orientation Groundspeed Altitude Reporting Facility
EDT Latitude Longitude Course Direction KTS MPH feet Rate Location/Type
Sun 08:19:21 AM 51.0667 -114.0333 128° Southeast 90 104 3,600  Level Edmonton Center
Sun 08:20:21 AM 51.1167 -114.0333 360° North 150 173 5,300 1,450 Climbing Edmonton Center
Sun 08:21:21 AM 51.1667 -114.0500 348° North 200 230 6,500 1,500 Climbing Edmonton Center
Sun 08:22:21 AM 51.2333 -113.9833 32° Northeast 270 311 8,300 2,200 Climbing Edmonton Center
Sun 08:23:00 AM 50.9785 -113.3252 114° Southeast  Level Estimated
Sun 08:23:21 AM 51.1667 -113.8833 137° Southeast 290 334 10,900  Level Edmonton Center
Sun 08:24:00 AM 50.9440 -113.1521 128° Southeast  Level Estimated
Sun 08:24:21 AM 51.1167 -113.7667 124° Southeast 330 380 11,800  Level Edmonton Center
Sun 08:25:21 AM 51.0500 -113.6500 132° Southeast 350 403 14,300 2,150 Climbing Edmonton Center
Sun 08:26:21 AM 50.9833 -113.5333 132° Southeast 360 414 16,100 1,750 Climbing Edmonton Center
Sun 08:27:21 AM 50.9167 -113.3833 125° Southeast 370 426 17,800 1,700 Climbing Edmonton Center
Sun 08:28:21 AM 50.8667 -113.2667 124° Southeast 370 426 19,500 1,550 Climbing Edmonton Center
Sun 08:29:21 AM 50.8000 -113.1167 125° Southeast 370 426 20,900 1,400 Climbing Edmonton Center
Sun 08:30:21 AM 50.7500 -112.9667 118° Southeast 380 437 22,300 1,300 Climbing Edmonton Center
Sun 08:31:21 AM 50.6833 -112.8333 128° Southeast 390 449 23,500 1,200 Climbing Edmonton Center
Sun 08:32:21 AM 50.6333 -112.6833 118° Southeast 410 472 24,700 1,250 Climbing Edmonton Center
Sun 08:33:21 AM 50.5500 -112.5333 131° Southeast 410 472 26,000 1,250 Climbing Edmonton Center
Sun 08:34:21 AM 50.5000 -112.3667 115° Southeast 410 472 27,200 1,150 Climbing Edmonton Center
Sun 08:35:21 AM 50.4333 -112.2333 128° Southeast 420 483 28,300 1,100 Climbing Edmonton Center
Sun 08:36:21 AM 50.3667 -112.0500 120° Southeast 430 495 29,400 1,300 Climbing Edmonton Center
Sun 08:37:21 AM 50.3167 -111.9167 120° Southeast 430 495 30,900 1,400 Climbing Edmonton Center
Sun 08:38:21 AM 50.2333 -111.7500 128° Southeast 420 483 32,200 1,050 Climbing Edmonton Center
Sun 08:39:21 AM 50.1833 -111.6000 117° Southeast 420 483 33,000 400 Climbing Edmonton Center
Sun 08:40:21 AM 50.1167 -111.4333 122° Southeast 410 472 33,000  Level Edmonton Center
Sun 08:41:21 AM 50.0500 -111.3000 128° Southeast 410 472 33,000  Level Edmonton Center
Sun 08:42:21 AM 49.9833 -111.1333 122° Southeast 420 483 33,000  Level Edmonton Center
Sun 08:43:21 AM 49.9333 -110.9667 115° Southeast 430 495 33,000  Level Edmonton Center
Sun 08:44:21 AM 49.8667 -110.8000 122° Southeast 440 506 33,000  Level Edmonton Center
Sun 08:45:21 AM 49.8167 -110.6333 115° Southeast 440 506 33,000  Level Edmonton Center
Sun 08:46:21 AM 49.7500 -110.4667 122° Southeast 440 506 33,000  Level Edmonton Center
Sun 08:47:21 AM 49.6667 -110.3000 128° Southeast 440 506 33,000  Level Edmonton Center
Sun 08:48:21 AM 49.6167 -110.1333 115° Southeast 440 506 33,000  Level Edmonton Center
Sun 08:49:21 AM 49.5500 -109.9833 124° Southeast 440 506 33,000  Level Edmonton Center
Sun 08:50:21 AM 49.5000 -109.8167 115° Southeast 450 518 33,000  Level Edmonton Center
Sun 08:51:21 AM 49.4167 -109.6500 128° Southeast 450 518 33,000  Level Edmonton Center
Sun 08:52:21 AM 49.3500 -109.4833 122° Southeast 450 518 33,000  Level Edmonton Center
Sun 08:53:21 AM 49.3000 -109.3000 113° Southeast 450 518 33,000  Level Edmonton Center
Sun 08:54:21 AM 49.2333 -109.1333 121° Southeast 450 518 33,000  Level Edmonton Center
Sun 08:55:21 AM 49.1667 -108.9833 124° Southeast 450 518 33,000  Level Edmonton Center
Sun 08:56:21 AM 49.1000 -108.8167 121° Southeast 450 518 33,000  Level Edmonton Center
Sun 08:57:21 AM 49.0333 -108.6333 119° Southeast 450 518 33,000  Level Edmonton Center
Sun 08:58:21 AM 48.9667 -108.5000 127° Southeast 450 518 33,000  Level Edmonton Center
Sun 08:59:21 AM 48.9167 -108.3500 117° Southeast 450 518 33,000  Level Edmonton Center
Sun 08:59:59 AM 48.9014 -108.2481 103° East 454 522 33,000  Level Salt Lake Center
Sun 09:01:00 AM 48.8344 -108.0861 122° Southeast 454 522 33,000  Level Salt Lake Center
Sun 09:02:01 AM 48.7531 -107.8900 122° Southeast 454 522 33,000  Level Salt Lake Center
Sun 09:03:01 AM 48.6925 -107.7469 123° Southeast 456 525 33,000  Level Salt Lake Center
Sun 09:04:02 AM 48.6264 -107.5850 122° Southeast 457 526 33,000  Level Salt Lake Center
Sun 09:05:03 AM 48.5564 -107.4228 123° Southeast 457 526 33,000  Level Salt Lake Center
Sun 09:06:03 AM 48.4881 -107.2597 122° Southeast 458 527 33,000  Level Salt Lake Center
Sun 09:07:04 AM 48.4175 -107.0967 123° Southeast 463 533 33,000  Level Salt Lake Center
Sun 09:08:05 AM 48.3506 -106.9411 123° Southeast 454 522 33,000  Level Salt Lake Center
Sun 09:09:05 AM 48.2717 -106.7528 122° Southeast 449 517 33,000  Level Salt Lake Center
Sun 09:10:06 AM 48.2019 -106.5953 124° Southeast 449 517 33,000  Level Salt Lake Center
Sun 09:11:07 AM 48.1353 -106.4353 122° Southeast 451 519 33,000  Level Salt Lake Center
Sun 09:11:37 AM 48.0833 -106.3833 146° Southeast 460 529 33,000  Level Winnipeg Center
Sun 09:12:08 AM 48.0700 -106.2778 101° East 450 518 33,000  Level Salt Lake Center
Sun 09:13:09 AM 48.0056 -106.1203 121° Southeast 449 517 33,000  Level Salt Lake Center
Sun 09:14:09 AM 47.9386 -105.9650 123° Southeast 449 517 33,000  Level Salt Lake Center
Sun 09:15:10 AM 47.8736 -105.8075 122° Southeast 449 517 33,000  Level Salt Lake Center
Sun 09:16:11 AM 47.8067 -105.6478 122° Southeast 450 518 33,000  Level Salt Lake Center
Sun 09:17:12 AM 47.7381 -105.4889 123° Southeast 454 522 33,000  Level Salt Lake Center
Sun 09:18:13 AM 47.6706 -105.3281 122° Southeast 456 525 33,000  Level Salt Lake Center
Sun 09:19:14 AM 47.6022 -105.1694 123° Southeast 456 525 33,000  Level Salt Lake Center
Sun 09:20:15 AM 47.5336 -105.0108 123° Southeast 457 526 33,000  Level Salt Lake Center
Sun 09:21:15 AM 47.4653 -104.8536 123° Southeast 457 526 33,000  Level Salt Lake Center
Sun 09:22:16 AM 47.3831 -104.6664 123° Southeast 457 526 33,000  Level Salt Lake Center
Sun 09:23:17 AM 47.3167 -104.5122 122° Southeast 457 526 33,000  Level Salt Lake Center
Sun 09:24:18 AM 47.2486 -104.3594 123° Southeast 455 524 33,000  Level Salt Lake Center
Sun 09:25:19 AM 47.1808 -104.2072 123° Southeast 454 522 33,000  Level Salt Lake Center
Sun 09:26:20 AM 47.1133 -104.0564 123° Southeast 452 520 33,000  Level Salt Lake Center
Sun 09:27:21 AM 47.0464 -103.9081 123° Southeast 448 516 33,000  Level Salt Lake Center
Sun 09:28:22 AM 46.9792 -103.7556 123° Southeast 448 516 33,000  Level Salt Lake Center
Sun 09:29:23 AM 46.9114 -103.6061 124° Southeast 448 516 33,000 492 Level Salt Lake Center
Sun 09:30:24 AM 46.8442 -103.4586 124° Southeast 446 513 34,000 1,200 Climbing Salt Lake Center
Sun 09:31:03 AM 46.7925 -103.3500 125° Southeast 419 482 35,000 600 Climbing Minneapolis Center
Sun 09:32:04 AM 46.7275 -103.2097 124° Southeast 419 482 35,000  Level Minneapolis Center
Sun 09:33:06 AM 46.6619 -103.0681 124° Southeast 423 487 35,000  Level Minneapolis Center
Sun 09:34:07 AM 46.5961 -102.9261 124° Southeast 428 493 35,000  Level Minneapolis Center
Sun 09:35:09 AM 46.5294 -102.7847 124° Southeast 426 490 35,000  Level Minneapolis Center
Sun 09:36:10 AM 46.4617 -102.6397 124° Southeast 423 487 35,000  Level Minneapolis Center
Sun 09:37:11 AM 46.3967 -102.5036 125° Southeast 426 490 35,000  Level Minneapolis Center
Sun 09:38:13 AM 46.3161 -102.3350 125° Southeast 425 489 35,000  Level Minneapolis Center
Sun 09:39:14 AM 46.2489 -102.1942 125° Southeast 430 495 35,000  Level Minneapolis Center
Sun 09:40:16 AM 46.1811 -102.0533 125° Southeast 436 502 35,000  Level Minneapolis Center
Sun 09:41:17 AM 46.1067 -101.8994 125° Southeast 442 509 35,000  Level Minneapolis Center
Sun 09:42:19 AM 46.0361 -101.7542 125° Southeast 442 509 35,000  Level Minneapolis Center
Sun 09:43:20 AM 45.9653 -101.6092 125° Southeast 449 517 35,000  Level Minneapolis Center
Sun 09:44:22 AM 45.8939 -101.4644 125° Southeast 447 514 35,000  Level Minneapolis Center
Sun 09:45:23 AM 45.8278 -101.3122 122° Southeast 455 524 35,000  Level Minneapolis Center
Sun 09:46:25 AM 45.7872 -101.1361 108° East 470 541 35,000  Level Minneapolis Center
Sun 09:47:26 AM 45.7469 -100.9561 108° East 471 542 35,000  Level Minneapolis Center
Sun 09:48:28 AM 45.7064 -100.7764 108° East 470 541 35,000  Level Minneapolis Center
Sun 09:49:29 AM 45.6572 -100.5606 108° East 471 542 35,000  Level Minneapolis Center
Sun 09:50:31 AM 45.6169 -100.3836 108° East 471 542 35,000  Level Minneapolis Center
Sun 09:51:32 AM 45.5750 -100.2028 108° East 470 541 35,000  Level Minneapolis Center
Sun 09:52:34 AM 45.5347 -100.0286 108° East 470 541 35,000  Level Minneapolis Center
Sun 09:53:35 AM 45.4931 -99.8528 109° East 466 536 35,000  Level Minneapolis Center
Sun 09:54:37 AM 45.4522 -99.6786 108° East 460 529 35,000  Level Minneapolis Center
Sun 09:55:38 AM 45.4106 -99.5053 109° East 459 528 35,000  Level Minneapolis Center
Sun 09:56:40 AM 45.3697 -99.3347 109° East 451 519 35,000  Level Minneapolis Center
Sun 09:57:41 AM 45.3286 -99.1653 109° East 449 517 35,000  Level Minneapolis Center
Sun 09:58:43 AM 45.2872 -98.9961 109° East 453 521 35,000  Level Minneapolis Center
Sun 09:59:44 AM 45.2456 -98.8258 109° East 459 528 35,000  Level Minneapolis Center
Sun 10:00:46 AM 45.1944 -98.6211 109° East 455 524 35,000  Level Minneapolis Center
Sun 10:01:47 AM 45.1519 -98.4508 109° East 459 528 35,000  Level Minneapolis Center
Sun 10:02:49 AM 45.1094 -98.2822 110° East 456 525 35,000  Level Minneapolis Center
Sun 10:03:50 AM 45.0669 -98.1156 110° East 446 513 35,000  Level Minneapolis Center
Sun 10:04:52 AM 45.0278 -97.9614 110° East 448 516 35,000  Level Minneapolis Center
Sun 10:05:53 AM 44.9853 -97.7967 110° East 447 514 35,000  Level Minneapolis Center
Sun 10:06:55 AM 44.9342 -97.5997 110° East 443 510 35,000  Level Minneapolis Center
Sun 10:07:56 AM 44.8914 -97.4347 110° East 446 513 35,000  Level Minneapolis Center
Sun 10:08:58 AM 44.8481 -97.2703 110° East 452 520 35,000  Level Minneapolis Center
Sun 10:09:59 AM 44.8044 -97.1053 110° East 450 518 35,000  Level Minneapolis Center
Sun 10:11:01 AM 44.7608 -96.9417 111° Southeast 446 513 35,000  Level Minneapolis Center
Sun 10:12:03 AM 44.7169 -96.7781 111° Southeast 448 516 35,000  Level Minneapolis Center
Sun 10:13:04 AM 44.6728 -96.6153 111° Southeast 447 514 35,000  Level Minneapolis Center
Sun 10:14:06 AM 44.6281 -96.4519 111° Southeast 447 514 35,000  Level Minneapolis Center
Sun 10:15:07 AM 44.5833 -96.2883 111° Southeast 447 514 35,000  Level Minneapolis Center
Sun 10:16:09 AM 44.5292 -96.0928 111° Southeast 443 510 35,000  Level Minneapolis Center
Sun 10:17:11 AM 44.4844 -95.9314 111° Southeast 439 505 35,000  Level Minneapolis Center
Sun 10:18:13 AM 44.4400 -95.7725 111° Southeast 436 502 35,000  Level Minneapolis Center
Sun 10:19:14 AM 44.3956 -95.6144 111° Southeast 435 501 35,000  Level Minneapolis Center
Sun 10:20:16 AM 44.3497 -95.4536 112° Southeast 439 505 35,000  Level Minneapolis Center
Sun 10:21:18 AM 44.3050 -95.2964 112° Southeast 447 514 35,000  Level Minneapolis Center
Sun 10:22:19 AM 44.2586 -95.1347 112° Southeast 449 517 35,000  Level Minneapolis Center
Sun 10:23:21 AM 44.2117 -94.9728 112° Southeast 450 518 35,000  Level Minneapolis Center
Sun 10:24:23 AM 44.1547 -94.7772 112° Southeast 458 527 35,000  Level Minneapolis Center
Sun 10:25:25 AM 44.1106 -94.6261 112° Southeast 453 521 35,000  Level Minneapolis Center
Sun 10:26:27 AM 44.0583 -94.4492 112° Southeast 456 525 35,000  Level Minneapolis Center
Sun 10:27:29 AM 44.0117 -94.2919 112° Southeast 455 524 35,000  Level Minneapolis Center
Sun 10:28:31 AM 43.9614 -94.1242 113° Southeast 452 520 35,000  Level Minneapolis Center
Sun 10:29:33 AM 43.9131 -93.9644 113° Southeast 450 518 35,000  Level Minneapolis Center
Sun 10:30:35 AM 43.8650 -93.8056 113° Southeast 448 516 35,000  Level Minneapolis Center
Sun 10:31:37 AM 43.8167 -93.6472 113° Southeast 449 517 35,000  Level Minneapolis Center
Sun 10:32:39 AM 43.7581 -93.4556 113° Southeast 455 524 35,000  Level Minneapolis Center
Sun 10:33:41 AM 43.7086 -93.2956 113° Southeast 459 528 35,000  Level Minneapolis Center
Sun 10:34:43 AM 43.6625 -93.1456 113° Southeast 453 521 35,000  Level Minneapolis Center
Sun 10:36:47 AM 43.5511 -92.7914 113° Southeast 450 518 35,000  Level Minneapolis Center
Sun 10:37:49 AM 43.5008 -92.6322 113° Southeast 447 514 35,000  Level Minneapolis Center
Sun 10:38:49 AM 43.4553 -92.4903 114° Southeast 451 519 35,000  Level Chicago Center
Sun 10:39:51 AM 43.4050 -92.3333 114° Southeast 449 517 35,000  Level Chicago Center
Sun 10:40:53 AM 43.3453 -92.1481 114° Southeast 451 519 35,000  Level Chicago Center
Sun 10:41:57 AM 43.2997 -92.0078 114° Southeast 446 513 35,000 -905 Level Minneapolis Center
Sun 10:42:59 AM 43.2392 -91.8225 114° Southeast 446 513 33,100 -1,935 Descending Minneapolis Center
Sun 10:44:01 AM 43.1872 -91.6633 114° Southeast 458 527 31,000 -1,016 Descending Minneapolis Center
Sun 10:45:03 AM 43.1319 -91.5033 115° Southeast 466 536 31,000  Level Minneapolis Center
Sun 10:46:06 AM 43.0778 -91.3469 115° Southeast 464 534 31,000  Level Minneapolis Center
Sun 10:47:08 AM 43.0214 -91.1856 115° Southeast 466 536 31,000  Level Minneapolis Center
Sun 10:48:10 AM 42.9664 -91.0269 115° Southeast 466 536 31,000  Level Minneapolis Center
Sun 10:49:08 AM 42.9044 -90.8506 116° Southeast 472 543 31,000  Level Chicago Center
Sun 10:50:10 AM 42.8472 -90.6889 116° Southeast 473 544 31,000  Level Chicago Center
Sun 10:51:12 AM 42.7900 -90.5278 116° Southeast 475 547 31,000  Level Chicago Center
Sun 10:52:14 AM 42.7333 -90.3689 116° Southeast 473 544 31,000 -341 Level Chicago Center
Sun 10:53:15 AM 42.6647 -90.1783 116° Southeast 470 541 30,300 -1,561 Descending Chicago Center
Sun 10:54:17 AM 42.6067 -90.0189 116° Southeast 474 545 27,800 -2,371 Descending Chicago Center
Sun 10:55:19 AM 42.5494 -89.8619 116° Southeast 458 527 25,400 -2,129 Descending Chicago Center
Sun 10:56:21 AM 42.5172 -89.7039 105° East 437 503 23,400 -1,610 Descending Chicago Center
Sun 10:57:22 AM 42.5150 -89.5419 91° East 431 496 22,100 -1,268 Descending Chicago Center
Sun 10:58:24 AM 42.5119 -89.3808 91° East 425 489 20,800 -1,548 Descending Chicago Center
Sun 10:59:26 AM 42.5094 -89.2244 91° East 413 475 18,900 -2,032 Descending Chicago Center
Sun 11:00:28 AM 42.5078 -89.0472 91° East 394 453 16,600 -2,098 Descending Chicago Center
Sun 11:01:29 AM 42.4969 -88.9039 96° East 385 443 14,600 -1,805 Descending Chicago Center
Sun 11:02:31 AM 42.4583 -88.7736 112° Southeast 367 422 12,900 -1,645 Descending Chicago Center
Sun 11:03:33 AM 42.4219 -88.6547 112° Southeast 330 380 11,200 -919 Descending Chicago Center
Sun 11:04:35 AM 42.3897 -88.5486 112° Southeast 306 352 11,000 -98 Descending Chicago Center
Sun 11:05:36 AM 42.3581 -88.4431 112° Southeast 302 348 11,000 -976 Level Chicago Center
Sun 11:06:38 AM 42.2883 -88.3558 137° Southeast 295 339 9,000 -1,790 Descending Chicago Center
Sun 11:07:40 AM 42.2022 -88.3492 177° South 284 327 7,300 -1,317 Descending Chicago Center
Sun 11:08:41 AM 42.1328 -88.3472 179° South 241 277 6,300 -1,317 Descending Chicago Center
Sun 11:09:43 AM 42.0733 -88.3719 197° South 235 270 4,600 -1,113 Descending Chicago Center
Sun 11:10:45 AM 42.0194 -88.3628 173° South 197 227 4,000 -293 Descending Chicago Center
Sun 11:11:46 AM 42.0025 -88.3019 111° Southeast 176 203 4,000  Level Chicago Center
Sun 11:12:48 AM 42.0017 -88.2358 91° East 176 203 4,000  Level Chicago Center
Sun 11:13:50 AM 42.0028 -88.1608 89° East 184 212 4,000 -439 Level Chicago Center
Sun 11:14:51 AM 42.0019 -88.0903 91° East 186 214 3,100 -927 Descending Chicago Center
Sun 11:15:53 AM 42.0028 -88.0228 89° East 185 213 2,100 -871 Descending Chicago Center
Sun 11:16:55 AM 42.0036 -87.9667 89° East 142 163 1,300 -585 Descending Chicago Center
Sun 11:17:56 AM 42.0036 -87.9142 90° East 136 157 900 -393 Descending Chicago Center
Sun 11:19:00 AM 41.9793 -87.9074 143° Southeast  Level Estimated

Login

Don't have an account? Register now (free) for customized features, flight alerts, and more!